Hlavní strana
METAR-TAF:

METAR-TAF

Letiště :

Mezinárodní letiště Krále Fahda

Dammám, Saúdská Arábie

zeměpisná šířka: 26-28N, zeměpisná délka: 049-47E, výška: 22 m

Aktuální stav počasí

Zpráva byla vytvořena před 1 hodinou a 14 minutami, v 09:00 UTC
Severní vítr 7 kt
Teplota 20°C
Vlhkost vzduchu 35%
Tlak 1016 hPa
Viditelnost 10 km a více
Žádná oblačnost pod 1500 m, nevyskytují se cumulonimby.

METAR: OEDF 180900Z 36007KT CAVOK 20/04 Q1016 NOSIG

Čas: 13:14 (10:14 UTC)

Předpověď počasí

Zpráva byla vytvořena před 6 hodinami a 44 minutami, v 03:30 UTC
Předpověď platná od 18 v 06 UTC do 19 v 12 UTC
Severní vítr 13 kt
Viditelnost 10 km a více
Žádná oblačnost pod 1500 m, nevyskytují se cumulonimby.

TAF: OEDF 180330Z 1806/1912 36013KT CAVOK

Stav a předpovědi počasí z více než 4 000 letišť (zprávy METAR a TAF).

Červené a žluté tečky na mapě představují dostupné meteorologické stanice.

Když kurzor umístíte na tečku, zobrazí se název stanice.

Pak kliknutím zobrazíte stav a předpověď počasí.

Chcete-li změnit mapu, kliknutím na zelené tlačítko se znaménkem +mapu přiblížíte, kliknutím na zelené tlačítko se znaménkem – mapu oddálíte a kliknutím na zelené šipky přejdete na sousední mapy.


METAR-TAF: